Time;durP1;ratioP1;P1;durP2;ratioP2;P2;SDS_P1;SDS_P2;PMS_P1;PMS_P2;Temp;Humidity;BMP_temperature;BMP_pressure;BME280_temperature;BME280_humidity;BME280_pressure;Samples;Min_cycle;Max_cycle;Signal;HPM_P1;HPM_P2
2021/04/28 00:00:20;;;;;;;13.77;7.93;;;;;;;6.61;94.61;94843.56;1023479;28;20033;-48
2021/04/28 00:00:51;;;;;;;11.43;7.57;;;;;;;6.60;94.90;94844.47;1027445;28;20058;-49
2021/04/28 00:01:21;;;;;;;11.52;7.88;;;;;;;6.46;94.88;94821.22;1027664;28;20258;-51
2021/04/28 00:01:53;;;;;;;12.75;7.45;;;;;;;6.56;94.99;94840.44;1031575;28;20027;-51
2021/04/28 00:02:24;;;;;;;10.88;8.07;;;;;;;6.53;95.53;94841.50;1027468;28;20035;-49
2021/04/28 00:02:55;;;;;;;13.80;8.18;;;;;;;6.49;95.93;94836.63;1027369;28;20278;-49
2021/04/28 00:03:26;;;;;;;12.38;8.35;;;;;;;6.51;96.35;94845.13;1027523;28;20170;-49
2021/04/28 00:03:57;;;;;;;13.32;8.93;;;;;;;6.48;96.22;94843.59;1023403;29;20278;-50
2021/04/28 00:04:27;;;;;;;12.45;7.65;;;;;;;6.43;96.93;94836.09;1023541;29;20350;-50
2021/04/28 00:04:59;;;;;;;13.07;7.72;;;;;;;6.50;96.90;94843.50;1031476;28;20036;-50
2021/04/28 00:05:30;;;;;;;15.75;8.73;;;;;;;6.50;97.32;94841.72;1027543;28;20058;-51
2021/04/28 00:06:01;;;;;;;13.93;7.82;;;;;;;6.51;97.06;94842.53;1023635;29;20265;-49
2021/04/28 00:06:32;;;;;;;14.50;7.78;;;;;;;6.50;97.30;94839.09;1027373;28;20054;-50
2021/04/28 00:07:03;;;;;;;9.57;7.57;;;;;;;6.50;97.43;94841.72;1031420;28;20029;-48
2021/04/28 00:07:34;;;;;;;11.10;7.68;;;;;;;6.50;98.15;94843.50;1031519;28;20265;-49
2021/04/28 00:08:06;;;;;;;13.50;8.27;;;;;;;6.44;98.71;94836.97;1023619;28;20767;-47
2021/04/28 00:08:37;;;;;;;14.95;7.57;;;;;;;6.45;99.00;94846.41;1023575;29;20047;-49
2021/04/28 00:09:08;;;;;;;10.35;7.95;;;;;;;6.50;98.39;94846.09;1031427;28;20269;-49
2021/04/28 00:09:39;;;;;;;12.93;8.15;;;;;;;6.49;99.15;94845.25;1031477;28;20124;-47
2021/04/28 00:10:11;;;;;;;11.30;8.20;;;;;;;6.48;98.80;94847.97;1031506;28;20767;-50
2021/04/28 00:10:42;;;;;;;11.20;7.70;;;;;;;6.42;99.17;94844.88;1027527;28;20060;-49
2021/04/28 00:11:13;;;;;;;11.73;7.90;;;;;;;6.47;99.34;94841.91;1023126;29;20741;-50
2021/04/28 00:11:43;;;;;;;12.00;7.68;;;;;;;6.47;99.47;94841.91;1027433;28;20270;-50
2021/04/28 00:12:14;;;;;;;12.50;9.05;;;;;;;6.50;99.13;94840.91;1027542;28;20031;-50
2021/04/28 00:12:45;;;;;;;10.70;7.68;;;;;;;6.46;99.65;94839.44;1023629;29;20030;-49
2021/04/28 00:13:17;;;;;;;12.82;8.52;;;;;;;6.46;99.91;94850.69;1023400;29;20019;-50
2021/04/28 00:13:48;;;;;;;12.50;8.18;;;;;;;6.47;99.74;94841.09;1023316;29;20259;-49
2021/04/28 00:14:18;;;;;;;15.23;8.30;;;;;;;6.47;99.99;94841.09;1027530;28;20266;-51
2021/04/28 00:14:49;;;;;;;14.15;8.63;;;;;;;6.48;99.93;94845.38;1023559;29;20087;-50
2021/04/28 00:15:24;;;;;;;10.80;8.40;;;;;;;6.47;100.00;94846.31;1027509;28;20113;-50
2021/04/28 00:15:55;;;;;;;13.57;7.65;;;;;;;6.47;99.64;94839.31;1022978;29;20076;-49
2021/04/28 00:16:26;;;;;;;17.17;8.52;;;;;;;6.45;100.00;94846.41;1023557;29;20298;-50
2021/04/28 00:16:57;;;;;;;13.30;7.90;;;;;;;6.44;100.00;94842.16;1027524;28;20258;-50
2021/04/28 00:17:28;;;;;;;11.88;8.35;;;;;;;6.40;100.00;94845.91;1023522;29;20508;-52
2021/04/28 00:17:59;;;;;;;11.82;8.20;;;;;;;6.42;100.00;94841.44;1023579;28;20258;-50
2021/04/28 00:18:30;;;;;;;15.18;8.85;;;;;;;6.44;100.00;94852.56;1031540;28;20404;-50
2021/04/28 00:19:01;;;;;;;12.25;7.65;;;;;;;6.46;100.00;94840.28;1023628;28;20027;-51
2021/04/28 00:19:32;;;;;;;13.15;8.60;;;;;;;6.47;100.00;94848.91;1031440;28;20034;-50
2021/04/28 00:20:06;;;;;;;12.23;7.60;;;;;;;6.44;100.00;94839.56;1027385;28;20480;-51
2021/04/28 00:20:39;;;;;;;17.25;8.32;;;;;;;6.42;100.00;94847.47;1023565;28;20023;-49
2021/04/28 00:21:10;;;;;;;12.05;8.07;;;;;;;6.37;100.00;94843.53;1023576;29;20271;-49
2021/04/28 00:21:41;;;;;;;16.90;8.10;;;;;;;6.39;100.00;94852.06;1027560;28;20752;-50
2021/04/28 00:22:13;;;;;;;12.23;8.13;;;;;;;6.40;100.00;94851.09;1019499;29;20028;-49
2021/04/28 00:22:44;;;;;;;10.95;8.30;;;;;;;6.40;100.00;94851.97;1019592;29;20311;-47
2021/04/28 00:23:14;;;;;;;10.38;8.10;;;;;;;6.43;100.00;94856.91;1023529;28;20996;-49
2021/04/28 00:23:45;;;;;;;12.00;8.40;;;;;;;6.45;100.00;94843.81;1023324;29;20035;-48
2021/04/28 00:24:16;;;;;;;18.85;8.48;;;;;;;6.46;100.00;94847.22;1027417;28;20085;-49
2021/04/28 00:24:47;;;;;;;12.07;8.00;;;;;;;6.45;100.00;94846.41;1023562;29;20046;-50
2021/04/28 00:25:20;;;;;;;11.13;8.20;;;;;;;6.47;100.00;94848.91;1023557;29;20027;-49
2021/04/28 00:25:51;;;;;;;12.18;8.52;;;;;;;6.46;100.00;94842.03;1035490;28;20026;-50
2021/04/28 00:26:22;;;;;;;13.20;8.70;;;;;;;6.45;100.00;94848.19;1031446;28;21133;-49
2021/04/28 00:26:53;;;;;;;15.30;9.20;;;;;;;6.46;100.00;94839.44;1023496;28;20086;-49
2021/04/28 00:27:24;;;;;;;14.15;9.27;;;;;;;6.43;100.00;94841.31;1027421;28;20037;-49
2021/04/28 00:27:55;;;;;;;11.77;7.90;;;;;;;6.44;100.00;94836.97;1027414;28;20664;-50
2021/04/28 00:28:26;;;;;;;15.23;9.25;;;;;;;6.46;100.00;94836.81;1027394;28;20047;-50
2021/04/28 00:28:57;;;;;;;13.85;8.93;;;;;;;6.47;100.00;94841.09;1023535;29;20278;-51
2021/04/28 00:29:28;;;;;;;11.25;8.32;;;;;;;6.46;100.00;94837.69;1027499;28;20026;-50
2021/04/28 00:29:59;;;;;;;15.77;8.68;;;;;;;6.46;100.00;94837.69;1027525;28;20109;-51
2021/04/28 00:30:30;;;;;;;12.25;8.52;;;;;;;6.42;100.00;94837.06;1023309;29;20259;-49
2021/04/28 00:31:02;;;;;;;12.48;8.13;;;;;;;6.43;100.00;94835.28;1027554;28;20272;-53
2021/04/28 00:31:33;;;;;;;12.23;7.82;;;;;;;6.43;100.00;94837.88;1023526;28;20023;-49
2021/04/28 00:32:04;;;;;;;11.93;8.20;;;;;;;6.41;100.00;94831.97;1023563;28;20267;-49
2021/04/28 00:32:35;;;;;;;12.18;8.45;;;;;;;6.38;100.00;94833.03;1019427;29;20082;-48
2021/04/28 00:33:06;;;;;;;11.73;8.40;;;;;;;6.38;100.00;94845.19;1019604;29;20303;-49
2021/04/28 00:33:37;;;;;;;13.45;8.27;;;;;;;6.37;100.00;94838.34;1023276;29;20366;-48
2021/04/28 00:34:08;;;;;;;12.82;8.98;;;;;;;6.35;100.00;94835.84;1027539;28;20748;-48
2021/04/28 00:34:39;;;;;;;13.20;8.27;;;;;;;6.33;100.00;94834.28;1023675;29;20286;-50
2021/04/28 00:35:12;;;;;;;11.60;8.27;;;;;;;6.32;100.00;94828.25;1023523;29;20493;-50
2021/04/28 00:35:43;;;;;;;11.43;8.18;;;;;;;6.32;100.00;94832.63;1027377;28;20096;-51
2021/04/28 00:36:14;;;;;;;16.45;8.40;;;;;;;6.29;100.00;94833.69;1023501;29;20259;-49
2021/04/28 00:36:45;;;;;;;13.13;8.50;;;;;;;6.28;100.00;94832.00;1019532;29;20034;-50
2021/04/28 00:37:16;;;;;;;16.95;8.60;;;;;;;6.27;100.00;94830.38;1027427;28;20081;-50
2021/04/28 00:37:47;;;;;;;13.25;9.45;;;;;;;6.26;100.00;94830.47;1027501;28;20026;-47
2021/04/28 00:38:18;;;;;;;12.75;8.50;;;;;;;6.24;100.00;94835.78;1027471;28;20033;-49
2021/04/28 00:38:50;;;;;;;12.50;8.50;;;;;;;6.25;100.00;94837.44;1023466;28;20270;-47
2021/04/28 00:39:21;;;;;;;12.10;9.18;;;;;;;6.16;100.00;94815.50;1019516;29;20118;-49
2021/04/28 00:39:52;;;;;;;9.02;7.75;;;;;;;6.27;100.00;94830.38;1023793;29;20277;-50
2021/04/28 00:40:26;;;;;;;12.70;8.50;;;;;;;6.26;100.00;94828.69;1019882;29;20036;-49
2021/04/28 00:40:57;;;;;;;13.52;9.35;;;;;;;6.22;100.00;94833.28;1024014;28;20034;-49
2021/04/28 00:41:28;;;;;;;13.98;9.25;;;;;;;6.21;100.00;94829.03;1027998;28;20262;-50
2021/04/28 00:41:59;;;;;;;12.73;8.68;;;;;;;6.19;100.00;94827.47;1019529;29;20380;-48
2021/04/28 00:42:30;;;;;;;12.98;7.93;;;;;;;6.19;100.00;94830.06;1019483;29;20267;-50
2021/04/28 00:43:00;;;;;;;13.90;8.48;;;;;;;6.18;100.00;94831.00;1023523;28;20263;-50
2021/04/28 00:43:31;;;;;;;12.40;8.38;;;;;;;6.05;100.00;94812.03;1023334;29;20449;-48
2021/04/28 00:44:02;;;;;;;10.98;8.50;;;;;;;6.14;100.00;94830.41;1019527;29;20032;-49
2021/04/28 00:44:34;;;;;;;11.20;8.63;;;;;;;6.13;100.00;94833.09;1023456;29;20035;-51
2021/04/28 00:45:05;;;;;;;13.05;9.00;;;;;;;6.14;100.00;94834.78;1023371;29;20267;-49
2021/04/28 00:45:36;;;;;;;13.70;8.95;;;;;;;6.12;100.00;94832.28;1027499;28;20126;-50
2021/04/28 00:46:07;;;;;;;12.30;8.82;;;;;;;6.11;100.00;94837.59;1023531;28;20273;-50
2021/04/28 00:46:38;;;;;;;11.73;8.23;;;;;;;6.11;100.00;94829.78;1019503;29;20494;-51
2021/04/28 00:47:09;;;;;;;12.35;8.43;;;;;;;6.11;100.00;94832.38;1027330;28;20031;-51
2021/04/28 00:47:40;;;;;;;17.23;9.25;;;;;;;6.11;100.00;94827.19;1023433;29;20019;-50
2021/04/28 00:48:12;;;;;;;10.80;8.68;;;;;;;6.06;100.00;94826.66;1023519;29;20243;-50
2021/04/28 00:48:42;;;;;;;12.38;9.38;;;;;;;6.10;100.00;94834.16;1031464;28;20034;-50
2021/04/28 00:49:13;;;;;;;15.25;9.07;;;;;;;6.08;100.00;94833.44;1019430;29;20785;-50
2021/04/28 00:49:44;;;;;;;12.50;9.30;;;;;;;6.08;100.00;94837.78;1031467;28;20400;-50
2021/04/28 00:50:18;;;;;;;12.20;8.50;;;;;;;6.07;100.00;94834.38;1035641;28;20068;-50
2021/04/28 00:50:51;;;;;;;13.05;8.40;;;;;;;6.03;100.00;94830.31;1031526;28;20034;-49
2021/04/28 00:51:22;;;;;;;14.93;9.57;;;;;;;6.00;100.00;94833.13;1023426;29;20271;-49
2021/04/28 00:51:53;;;;;;;13.35;8.15;;;;;;;5.99;100.00;94828.88;1031332;28;20264;-51
2021/04/28 00:52:24;;;;;;;12.20;8.60;;;;;;;6.00;100.00;94825.34;1027383;28;20259;-50
2021/04/28 00:52:54;;;;;;;12.80;8.07;;;;;;;5.98;100.00;94825.44;1031457;28;20026;-51
2021/04/28 00:53:25;;;;;;;15.23;9.18;;;;;;;5.96;100.00;94829.91;1023335;28;20267;-49
2021/04/28 00:53:56;;;;;;;11.82;8.50;;;;;;;5.95;100.00;94833.47;1023280;29;20472;-51
2021/04/28 00:54:27;;;;;;;12.57;9.27;;;;;;;5.94;100.00;94830.94;1027465;28;20023;-51
2021/04/28 00:54:59;;;;;;;13.75;8.40;;;;;;;5.94;100.00;94823.13;1027460;28;20018;-51
2021/04/28 00:55:30;;;;;;;12.65;9.40;;;;;;;5.92;100.00;94828.44;1027263;28;20027;-49
2021/04/28 00:56:01;;;;;;;14.80;8.82;;;;;;;5.87;100.00;94825.31;1023394;28;20753;-50
2021/04/28 00:56:32;;;;;;;12.50;8.88;;;;;;;5.85;100.00;94828.03;1023454;29;20346;-51
2021/04/28 00:57:03;;;;;;;11.90;9.10;;;;;;;5.85;100.00;94825.44;1023452;29;20265;-51
2021/04/28 00:57:35;;;;;;;12.43;8.73;;;;;;;5.82;100.00;94827.44;1023438;28;20489;-52
2021/04/28 00:58:06;;;;;;;15.02;8.00;;;;;;;5.76;100.00;94815.69;1019574;29;20256;-48
2021/04/28 00:58:37;;;;;;;11.98;8.32;;;;;;;5.80;100.00;94829.28;1023529;29;20250;-51
2021/04/28 00:59:10;;;;;;;12.73;9.02;;;;;;;5.81;100.00;94828.34;1023486;28;20610;-49
2021/04/28 00:59:41;;;;;;;13.23;8.45;;;;;;;5.82;100.00;94824.84;1023290;29;20076;-51
2021/04/28 01:00:14;;;;;;;12.52;8.85;;;;;;;5.84;100.00;94828.16;1027338;28;20780;-49
2021/04/28 01:00:45;;;;;;;13.30;8.85;;;;;;;5.82;100.00;94827.44;1027378;28;20345;-49
2021/04/28 01:01:16;;;;;;;11.55;8.70;;;;;;;5.82;100.00;94830.03;1027410;28;20266;-50
2021/04/28 01:01:47;;;;;;;11.43;8.93;;;;;;;5.79;100.00;94822.44;1031378;28;20029;-50
2021/04/28 01:02:18;;;;;;;14.38;9.45;;;;;;;5.80;100.00;94824.09;1031387;28;20084;-50
2021/04/28 01:02:49;;;;;;;12.48;8.15;;;;;;;5.79;100.00;94831.06;1023473;28;20031;-50
2021/04/28 01:03:22;;;;;;;14.00;10.13;;;;;;;5.73;100.00;94825.47;1036016;28;20045;-50
2021/04/28 01:03:54;;;;;;;11.32;8.27;;;;;;;5.75;100.00;94826.19;1027743;28;20756;-49
2021/04/28 01:04:25;;;;;;;12.90;9.15;;;;;;;5.78;100.00;94823.38;1024192;28;20263;-50
2021/04/28 01:04:56;;;;;;;14.13;9.60;;;;;;;5.77;100.00;94826.91;1020186;29;20247;-48
2021/04/28 01:05:26;;;;;;;10.88;8.98;;;;;;;5.71;100.00;94822.97;1032174;28;20037;-49
2021/04/28 01:05:59;;;;;;;11.70;9.00;;;;;;;5.71;100.00;94828.16;1028079;28;20035;-50
2021/04/28 01:06:30;;;;;;;11.85;8.20;;;;;;;5.74;100.00;94825.34;1028097;28;20055;-50
2021/04/28 01:07:01;;;;;;;12.45;9.07;;;;;;;5.73;100.00;94825.47;1024158;29;20251;-51
2021/04/28 01:07:32;;;;;;;11.90;9.00;;;;;;;5.74;100.00;94825.34;1024170;29;20047;-49
2021/04/28 01:08:04;;;;;;;12.57;8.85;;;;;;;5.70;100.00;94831.69;1028037;28;20667;-50
2021/04/28 01:08:36;;;;;;;15.10;10.10;;;;;;;5.70;100.00;94830.88;1028055;28;20305;-50
2021/04/28 01:09:07;;;;;;;14.57;9.15;;;;;;;5.69;100.00;94829.19;1020136;29;20319;-52
2021/04/28 01:09:41;;;;;;;11.65;8.90;;;;;;;5.67;100.00;94828.47;1023975;28;20259;-50
2021/04/28 01:10:17;;;;;;;11.05;9.02;;;;;;;5.67;100.00;94831.06;1024064;28;20024;-50
2021/04/28 01:10:48;;;;;;;13.40;8.93;;;;;;;5.61;100.00;94822.78;1028169;28;20255;-49
2021/04/28 01:11:19;;;;;;;10.80;8.68;;;;;;;5.65;100.00;94836.41;1027853;28;20270;-50
2021/04/28 01:11:50;;;;;;;13.43;9.00;;;;;;;5.61;100.00;94829.72;1028141;28;20282;-49
2021/04/28 01:12:24;;;;;;;10.68;8.10;;;;;;;5.64;100.00;94832.13;1028135;28;20048;-50
2021/04/28 01:12:55;;;;;;;14.65;9.07;;;;;;;5.62;100.00;94826.22;1032165;28;20029;-50
2021/04/28 01:13:27;;;;;;;18.55;9.55;;;;;;;5.62;100.00;94827.03;1024097;29;20274;-49
2021/04/28 01:13:58;;;;;;;12.48;9.40;;;;;;;5.60;100.00;94826.31;1027925;28;20251;-48
2021/04/28 01:14:29;;;;;;;12.05;9.07;;;;;;;5.59;100.00;94832.47;1028102;28;20626;-49
2021/04/28 01:15:00;;;;;;;13.68;9.55;;;;;;;5.57;100.00;94833.47;1024092;28;20106;-49
2021/04/28 01:15:33;;;;;;;14.95;9.68;;;;;;;5.53;100.00;94822.47;1028080;28;20756;-48
2021/04/28 01:16:04;;;;;;;12.75;9.18;;;;;;;5.53;100.00;94826.84;1020032;29;20016;-48
2021/04/28 01:16:35;;;;;;;12.65;9.52;;;;;;;5.55;100.00;94828.38;1024106;29;20275;-51
2021/04/28 01:17:06;;;;;;;15.52;9.10;;;;;;;5.53;100.00;94826.84;1024124;28;20303;-50
2021/04/28 01:17:38;;;;;;;15.43;8.77;;;;;;;5.56;100.00;94826.63;1024176;29;20259;-50
2021/04/28 01:18:09;;;;;;;14.48;8.75;;;;;;;5.58;100.00;94827.34;1024152;29;20041;-49
2021/04/28 01:18:39;;;;;;;13.88;9.30;;;;;;;5.60;100.00;94830.69;1028201;28;20297;-52
2021/04/28 01:19:10;;;;;;;11.52;8.73;;;;;;;5.61;100.00;94825.38;1028078;28;20022;-50
2021/04/28 01:19:41;;;;;;;11.98;8.80;;;;;;;5.63;100.00;94827.84;1032078;28;20109;-49
2021/04/28 01:20:16;;;;;;;13.98;9.57;;;;;;;5.62;100.00;94824.44;1028060;28;20401;-50
2021/04/28 01:20:48;;;;;;;16.10;9.20;;;;;;;5.63;100.00;94822.66;1028162;28;20015;-51
2021/04/28 01:21:19;;;;;;;12.95;9.15;;;;;;;5.56;100.00;94804.06;1024022;28;20263;-50
2021/04/28 01:21:51;;;;;;;13.27;8.85;;;;;;;5.69;100.00;94832.66;1032125;28;20242;-50
2021/04/28 01:22:22;;;;;;;12.93;8.15;;;;;;;5.69;100.00;94821.41;1028041;28;20270;-49
2021/04/28 01:22:53;;;;;;;14.15;9.60;;;;;;;5.70;100.00;94826.50;1028054;28;20257;-49
2021/04/28 01:23:24;;;;;;;13.07;9.38;;;;;;;5.70;100.00;94823.91;1032139;28;20679;-48
2021/04/28 01:23:55;;;;;;;13.95;9.20;;;;;;;5.69;100.00;94827.44;1027909;28;20330;-48
2021/04/28 01:24:26;;;;;;;11.63;9.52;;;;;;;5.69;100.00;94826.59;1020170;29;20591;-49
2021/04/28 01:24:57;;;;;;;11.65;8.73;;;;;;;5.68;100.00;94824.94;1024096;29;20019;-49
2021/04/28 01:25:28;;;;;;;12.80;9.15;;;;;;;5.69;100.00;94824.00;1020155;29;20255;-50
2021/04/28 01:25:59;;;;;;;13.98;9.30;;;;;;;5.69;100.00;94824.84;1032101;28;20018;-48
2021/04/28 01:26:30;;;;;;;12.32;8.95;;;;;;;5.68;100.00;94827.56;1027950;28;20022;-50
2021/04/28 01:27:03;;;;;;;12.27;9.27;;;;;;;5.62;100.00;94819.22;1028120;28;20313;-49
2021/04/28 01:27:35;;;;;;;15.27;9.68;;;;;;;5.67;100.00;94828.47;1024144;29;20019;-50
2021/04/28 01:28:10;;;;;;;11.40;9.02;;;;;;;5.65;100.00;94824.22;1028130;28;20700;-50
2021/04/28 01:28:41;;;;;;;13.63;8.60;;;;;;;5.63;100.00;94825.25;1024008;29;20259;-49
2021/04/28 01:29:12;;;;;;;13.07;9.70;;;;;;;5.63;100.00;94822.66;1028005;28;20262;-48
2021/04/28 01:29:43;;;;;;;14.73;9.75;;;;;;;5.62;100.00;94826.22;1028124;28;20030;-50
2021/04/28 01:30:14;;;;;;;13.10;9.68;;;;;;;5.60;100.00;94821.09;1024028;28;20793;-50
2021/04/28 01:30:55;;;;;;;14.68;9.50;;;;;;;5.59;100.00;94827.25;1020126;29;20776;-51
2021/04/28 01:31:28;;;;;;;12.10;9.20;;;;;;;5.59;100.00;94824.66;1021795;29;20263;-51
2021/04/28 01:31:59;;;;;;;11.95;8.70;;;;;;;5.58;100.00;94822.97;1025969;28;20251;-49
2021/04/28 01:32:30;;;;;;;12.13;9.60;;;;;;;5.59;100.00;94821.22;1024038;29;20298;-51
2021/04/28 01:33:01;;;;;;;11.65;9.38;;;;;;;5.57;100.00;94823.09;1032050;28;20045;-47
2021/04/28 01:33:36;;;;;;;13.57;9.15;;;;;;;5.57;100.00;94817.88;1028031;28;20023;-49
2021/04/28 01:34:07;;;;;;;14.98;9.30;;;;;;;5.59;100.00;94824.66;1024109;29;20266;-50
2021/04/28 01:34:38;;;;;;;11.70;8.85;;;;;;;5.58;100.00;94822.97;1032089;28;20257;-49
2021/04/28 01:35:09;;;;;;;11.95;9.23;;;;;;;5.59;100.00;94826.41;1023997;28;20033;-50
2021/04/28 01:35:41;;;;;;;11.93;9.45;;;;;;;5.57;100.00;94816.13;1023981;29;20031;-50
2021/04/28 01:36:21;;;;;;;11.57;9.15;;;;;;;5.58;100.00;94822.16;1028017;28;20300;-50
2021/04/28 01:36:53;;;;;;;14.18;9.60;;;;;;;5.60;100.00;94825.47;1024079;28;20255;-49
2021/04/28 01:37:23;;;;;;;16.05;9.73;;;;;;;5.60;100.00;94823.72;1027950;28;20035;-49
2021/04/28 01:37:55;;;;;;;13.43;9.25;;;;;;;5.60;100.00;94822.88;1024092;29;20255;-51
2021/04/28 01:38:27;;;;;;;12.57;9.13;;;;;;;5.60;100.00;94823.72;1024044;28;20023;-50
2021/04/28 01:39:00;;;;;;;13.93;9.75;;;;;;;5.59;100.00;94818.59;1024143;29;20278;-51
2021/04/28 01:39:31;;;;;;;14.38;10.25;;;;;;;5.59;100.00;94821.22;1019969;29;20255;-49
2021/04/28 01:40:03;;;;;;;11.88;9.32;;;;;;;5.57;100.00;94816.13;1028015;28;20313;-49
2021/04/28 01:40:35;;;;;;;11.80;9.85;;;;;;;5.57;100.00;94823.91;1028069;28;20110;-51
2021/04/28 01:41:06;;;;;;;15.13;9.43;;;;;;;5.56;100.00;94819.66;1031989;28;20266;-49
2021/04/28 01:41:40;;;;;;;13.95;9.85;;;;;;;5.54;100.00;94818.94;1028039;28;20258;-50
2021/04/28 01:42:11;;;;;;;13.20;10.25;;;;;;;5.50;100.00;94817.50;1028051;28;20700;-49
2021/04/28 01:42:42;;;;;;;12.20;9.50;;;;;;;5.55;100.00;94830.97;1027997;28;20258;-49
2021/04/28 01:43:13;;;;;;;13.68;9.73;;;;;;;5.55;100.00;94824.97;1027980;28;20262;-49
2021/04/28 01:43:44;;;;;;;15.48;9.85;;;;;;;5.55;100.00;94824.97;1019925;29;20046;-49
2021/04/28 01:44:16;;;;;;;12.77;9.45;;;;;;;5.53;100.00;94821.63;1020094;29;20501;-49
2021/04/28 01:44:48;;;;;;;13.95;9.73;;;;;;;5.50;100.00;94814.91;1024137;29;20023;-49
2021/04/28 01:45:19;;;;;;;11.40;9.60;;;;;;;5.49;100.00;94822.78;1023934;29;20251;-50
2021/04/28 01:45:51;;;;;;;13.70;9.88;;;;;;;5.51;100.00;94831.31;1024321;28;20801;-49
2021/04/28 01:46:29;;;;;;;12.23;9.43;;;;;;;5.52;100.00;94828.63;1029538;28;20305;-50
2021/04/28 01:47:00;;;;;;;11.45;9.80;;;;;;;5.50;100.00;94833.09;1026107;28;20792;-49
2021/04/28 01:47:31;;;;;;;12.98;9.73;;;;;;;5.50;100.00;94825.28;1026092;28;20255;-52
2021/04/28 01:48:04;;;;;;;15.07;9.93;;;;;;;5.49;100.00;94826.22;1026001;28;20054;-48
2021/04/28 01:48:35;;;;;;;15.57;10.07;;;;;;;5.49;100.00;94821.00;1029887;28;20031;-49
2021/04/28 01:49:06;;;;;;;13.65;9.95;;;;;;;5.47;100.00;94822.88;1034018;28;20253;-47
2021/04/28 01:49:37;;;;;;;17.65;11.00;;;;;;;5.48;100.00;94823.72;1031271;28;20282;-51
2021/04/28 01:50:09;;;;;;;16.05;10.43;;;;;;;5.49;100.00;94823.63;1027495;28;20055;-49
2021/04/28 01:50:40;;;;;;;15.90;10.02;;;;;;;5.50;100.00;94821.84;1023714;29;20338;-52
2021/04/28 01:51:12;;;;;;;15.35;10.10;;;;;;;5.50;100.00;94825.28;1035589;28;20262;-55
2021/04/28 01:51:43;;;;;;;11.77;9.63;;;;;;;5.50;100.00;94829.63;1031509;28;20351;-52
2021/04/28 01:52:15;;;;;;;14.70;9.65;;;;;;;5.49;100.00;94825.38;1031849;28;20262;-53
2021/04/28 01:52:46;;;;;;;13.88;9.52;;;;;;;5.47;100.00;94825.50;1027520;29;20270;-50
2021/04/28 01:53:19;;;;;;;13.88;9.93;;;;;;;5.47;100.00;94825.50;1028096;28;20274;-50
2021/04/28 01:53:50;;;;;;;14.48;10.10;;;;;;;5.45;100.00;94822.16;1023845;28;20337;-50
2021/04/28 01:54:22;;;;;;;15.85;10.27;;;;;;;5.44;100.00;94823.94;1028066;28;20357;-50
2021/04/28 01:54:53;;;;;;;14.35;9.95;;;;;;;5.44;100.00;94823.09;1032117;28;20257;-50
2021/04/28 01:55:24;;;;;;;16.58;10.38;;;;;;;5.41;100.00;94825.91;1028029;28;20274;-50
2021/04/28 01:55:55;;;;;;;14.10;10.20;;;;;;;5.38;100.00;94823.50;1027874;28;20027;-50
2021/04/28 01:56:26;;;;;;;15.57;9.85;;;;;;;5.34;100.00;94816.88;1028002;28;20021;-49
2021/04/28 01:56:57;;;;;;;16.48;10.10;;;;;;;5.33;100.00;94823.84;1024131;28;20259;-49
2021/04/28 01:57:28;;;;;;;15.55;9.98;;;;;;;5.36;100.00;94822.78;1028059;28;20027;-50
2021/04/28 01:58:01;;;;;;;14.98;10.30;;;;;;;5.33;100.00;94823.00;1031965;28;20104;-49
2021/04/28 01:58:31;;;;;;;14.35;9.85;;;;;;;5.33;100.00;94828.19;1028001;28;20085;-51
2021/04/28 01:59:03;;;;;;;12.00;10.27;;;;;;;5.31;100.00;94830.06;1024005;29;20761;-48
2021/04/28 01:59:34;;;;;;;14.07;10.88;;;;;;;5.32;100.00;94823.94;1019959;29;20026;-49
2021/04/28 02:00:08;;;;;;;13.88;10.32;;;;;;;5.29;100.00;94829.31;1023915;29;20302;-50
2021/04/28 02:00:39;;;;;;;13.98;9.52;;;;;;;5.28;100.00;94825.09;1027929;28;20074;-49
2021/04/28 02:01:10;;;;;;;12.45;9.43;;;;;;;5.25;100.00;94826.97;1032021;28;20312;-50
2021/04/28 02:01:46;;;;;;;13.45;10.63;;;;;;;5.28;100.00;94822.50;1031884;28;20253;-50
2021/04/28 02:02:17;;;;;;;13.13;10.60;;;;;;;5.28;100.00;94825.91;1027923;28;20802;-49
2021/04/28 02:02:49;;;;;;;11.57;8.95;;;;;;;5.26;100.00;94818.22;1027969;28;20250;-50
2021/04/28 02:03:22;;;;;;;14.20;10.13;;;;;;;5.25;100.00;94821.75;1027851;28;20324;-49
2021/04/28 02:03:53;;;;;;;13.65;9.85;;;;;;;5.25;100.00;94824.38;1023763;28;20697;-50
2021/04/28 02:04:24;;;;;;;14.82;11.38;;;;;;;5.25;100.00;94821.75;1027776;28;20297;-48
2021/04/28 02:04:55;;;;;;;12.10;10.20;;;;;;;5.25;100.00;94826.97;1027929;28;20242;-48
2021/04/28 02:05:26;;;;;;;13.82;10.25;;;;;;;5.25;100.00;94819.16;1019995;29;20264;-49
2021/04/28 02:05:59;;;;;;;14.48;10.60;;;;;;;5.25;100.00;94821.75;1027989;28;20110;-50
2021/04/28 02:06:30;;;;;;;13.82;10.05;;;;;;;5.27;100.00;94826.84;1023798;29;20448;-49
2021/04/28 02:07:00;;;;;;;12.93;9.68;;;;;;;5.26;100.00;94825.19;1019982;29;20323;-49
2021/04/28 02:07:31;;;;;;;13.77;9.65;;;;;;;5.27;100.00;94819.03;1019974;29;20123;-49
2021/04/28 02:08:03;;;;;;;14.60;10.80;;;;;;;5.29;100.00;94814.56;1023939;29;20135;-50
2021/04/28 02:08:34;;;;;;;12.27;9.85;;;;;;;5.31;100.00;94824.84;1019881;29;20521;-49
2021/04/28 02:09:06;;;;;;;12.02;9.48;;;;;;;5.30;100.00;94821.44;1027983;28;20250;-49
2021/04/28 02:09:37;;;;;;;13.25;9.77;;;;;;;5.29;100.00;94818.94;1027845;28;20030;-49
2021/04/28 02:10:08;;;;;;;14.88;10.23;;;;;;;5.29;100.00;94826.72;1023882;28;20275;-51
2021/04/28 02:10:39;;;;;;;13.68;10.88;;;;;;;5.28;100.00;94818.13;1023771;29;20269;-50
2021/04/28 02:11:10;;;;;;;17.05;10.68;;;;;;;5.28;100.00;94822.50;1027949;28;20277;-49
2021/04/28 02:11:41;;;;;;;13.57;10.52;;;;;;;5.25;100.00;94823.50;1031868;28;20396;-48
2021/04/28 02:12:12;;;;;;;16.02;10.25;;;;;;;5.21;100.00;94822.88;1019970;28;20098;-50
2021/04/28 02:12:43;;;;;;;13.50;10.02;;;;;;;5.17;100.00;94813.66;1023880;29;20725;-49
2021/04/28 02:13:15;;;;;;;15.60;10.80;;;;;;;5.19;100.00;94822.16;1019920;29;20272;-49
2021/04/28 02:13:48;;;;;;;12.55;9.80;;;;;;;5.18;100.00;94815.31;1023628;28;20027;-50
2021/04/28 02:14:21;;;;;;;17.95;9.93;;;;;;;5.17;100.00;94823.22;1023614;28;20263;-48
2021/04/28 02:14:52;;;;;;;16.65;11.32;;;;;;;5.17;100.00;94816.25;1025233;28;20399;-49
2021/04/28 02:15:24;;;;;;;20.95;11.38;;;;;;;5.13;100.00;94812.19;1020501;29;20742;-48
2021/04/28 02:15:55;;;;;;;17.45;11.57;;;;;;;5.10;100.00;94811.56;1020602;29;20015;-48
2021/04/28 02:16:27;;;;;;;14.35;11.02;;;;;;;5.11;100.00;94814.06;1032002;28;20257;-48
2021/04/28 02:16:58;;;;;;;14.27;11.45;;;;;;;5.12;100.00;94820.91;1027871;28;20019;-49
2021/04/28 02:17:30;;;;;;;15.57;10.43;;;;;;;5.14;100.00;94813.00;1019856;29;20272;-49
2021/04/28 02:18:04;;;;;;;16.52;10.48;;;;;;;5.14;100.00;94816.44;1023921;29;20047;-50
2021/04/28 02:18:35;;;;;;;13.30;9.77;;;;;;;5.12;100.00;94809.69;1023760;29;20270;-50
2021/04/28 02:19:07;;;;;;;12.05;9.98;;;;;;;5.10;100.00;94816.75;1023865;29;20265;-49
2021/04/28 02:19:38;;;;;;;13.25;10.18;;;;;;;5.10;100.00;94812.38;1023798;29;20031;-50
2021/04/28 02:20:10;;;;;;;13.20;9.90;;;;;;;5.12;100.00;94814.88;1023870;28;20732;-50
2021/04/28 02:20:41;;;;;;;14.07;9.88;;;;;;;5.12;100.00;94813.09;1023830;28;20031;-51
2021/04/28 02:21:12;;;;;;;16.48;10.85;;;;;;;5.11;100.00;94814.06;1023899;28;20412;-50
2021/04/28 02:21:45;;;;;;;16.05;11.18;;;;;;;5.11;100.00;94814.06;1023916;29;20326;-48
2021/04/28 02:22:16;;;;;;;14.63;9.85;;;;;;;5.12;100.00;94820.91;1023844;28;20023;-50
2021/04/28 02:22:47;;;;;;;17.10;10.15;;;;;;;5.11;100.00;94814.06;1031855;28;20266;-50
2021/04/28 02:23:17;;;;;;;12.57;10.10;;;;;;;5.12;100.00;94817.47;1031947;28;20033;-49
2021/04/28 02:23:48;;;;;;;15.27;10.27;;;;;;;5.11;100.00;94814.06;1031695;28;20564;-50
2021/04/28 02:24:19;;;;;;;12.35;10.63;;;;;;;5.10;100.00;94814.97;1027846;28;20023;-49
2021/04/28 02:24:50;;;;;;;13.65;10.90;;;;;;;5.09;100.00;94815.94;1027816;28;20030;-49
2021/04/28 02:25:21;;;;;;;14.13;11.15;;;;;;;5.06;100.00;94816.94;1023839;28;20023;-48
2021/04/28 02:25:55;;;;;;;13.20;10.38;;;;;;;5.08;100.00;94819.44;1023954;29;20102;-49
2021/04/28 02:26:26;;;;;;;14.35;11.23;;;;;;;5.06;100.00;94816.13;1031917;28;20030;-49